Time;durP1;ratioP1;P1;durP2;ratioP2;P2;SDS_P1;SDS_P2;PMS_P1;PMS_P2;Temp;Humidity;BMP_temperature;BMP_pressure;BME280_temperature;BME280_humidity;BME280_pressure;Samples;Min_cycle;Max_cycle;Signal;HPM_P1;HPM_P2
2023/02/14 00:02:56;;;;;;;;;87.75;71.50;;;;;9.16;61.93;102940.63;4990255;28;45961;-66
2023/02/14 00:05:51;;;;;;;;;91.50;76.75;;;;;8.92;61.96;102900.44;5001882;28;45392;-66
2023/02/14 00:08:47;;;;;;;;;;;;;;;;;;;;;
2023/02/14 00:12:07;;;;;;;;;;;;;;;;;;;;;
2023/02/14 00:17:50;;;;;;;;;;;;;;;;;;;;;
2023/02/14 00:24:09;;;;;;;;;;;;;;;;;;;;;
2023/02/14 00:27:26;;;;;;;;;;;;;;;;;;;;;
2023/02/14 00:30:30;;;;;;;;;;;;;;;;;;;;;
2023/02/14 00:33:49;;;;;;;;;;;;;;;;;;;;;
2023/02/14 00:37:07;;;;;;;;;;;;;;;;;;;;;
2023/02/14 00:40:02;;;;;;;;;;;;;;;;;;;;;
2023/02/14 00:49:18;;;;;;;;;;;;;;;;;;;;;
2023/02/14 00:51:51;;;;;;;;;89.00;76.75;;;;;8.81;62.41;102916.31;4996007;28;71266;-66
2023/02/14 00:58:13;;;;;;;;;89.50;75.00;;;;;8.76;62.04;102904.75;4874689;29;45702;-66
2023/02/14 01:00:59;;;;;;;;;;;;;;;;;;;;;
2023/02/14 01:04:26;;;;;;;;;92.00;77.75;;;;;8.79;62.34;102912.75;4998986;28;73446;-66
2023/02/14 01:07:25;;;;;;;;;;;;;;;;;;;;;
2023/02/14 01:10:44;;;;;;;;;;;;;;;;;;;;;
2023/02/14 01:13:46;;;;;;;;;86.50;69.50;;;;;8.56;61.99;102892.09;4995252;28;47285;-66
2023/02/14 01:16:45;;;;;;;;;;;;;;;;;;;;;
2023/02/14 01:19:41;;;;;;;;;;;;;;;;;;;;;
2023/02/14 01:22:54;;;;;;;;;;;;;;;;;;;;;
2023/02/14 01:25:47;;;;;;;;;;;;;;;;;;;;;
2023/02/14 01:28:56;;;;;;;;;89.25;72.25;;;;;8.48;62.40;102897.34;4999412;28;71618;-66
2023/02/14 01:35:00;;;;;;;;;;;;;;;;;;;;;
2023/02/14 01:38:01;;;;;;;;;;;;;;;;;;;;;
2023/02/14 01:47:26;;;;;;;;;88.75;70.75;;;;;8.38;62.42;102907.84;4983164;28;45652;-66
2023/02/14 01:50:24;;;;;;;;;86.00;64.75;;;;;8.19;62.23;102891.66;4991219;28;45497;-66
2023/02/14 01:53:51;;;;;;;;;;;;;;;;;;;;;
2023/02/14 01:56:55;;;;;;;;;;;;;;;;;;;;;
2023/02/14 01:59:56;;;;;;;;;87.00;69.75;;;;;8.32;62.77;102917.53;4998956;28;72760;-65
2023/02/14 02:03:09;;;;;;;;;;;;;;;;;;;;;
2023/02/14 02:06:05;;;;;;;;;;;;;;;;;;;;;
2023/02/14 02:09:07;;;;;;;;;;;;;;;;;;;;;
2023/02/14 02:12:14;;;;;;;;;;;;;;;;;;;;;
2023/02/14 02:15:10;;;;;;;;;;;;;;;;;;;;;
2023/02/14 02:18:40;;;;;;;;;;;;;;;;;;;;;
2023/02/14 02:21:44;;;;;;;;;;;;;;;;;;;;;
2023/02/14 02:28:08;;;;;;;;;;;;;;;;;;;;;
2023/02/14 02:31:03;;;;;;;;;;;;;;;;;;;;;
2023/02/14 02:34:23;;;;;;;;;;;;;;;;;;;;;
2023/02/14 02:40:39;;;;;;;;;85.75;67.75;;;;;8.03;62.81;102916.28;4983762;28;46285;-66
2023/02/14 02:43:52;;;;;;;;;;;;;;;;;;;;;
2023/02/14 02:47:09;;;;;;;;;84.00;67.50;;;;;7.91;62.78;102893.09;4988513;28;67709;-66
2023/02/14 02:56:57;;;;;;;;;;;;;;;;;;;;;
2023/02/14 03:00:03;;;;;;;;;;;;;;;;;;;;;
2023/02/14 03:06:06;;;;;;;;;;;;;;;;;;;;;
2023/02/14 03:08:55;;;;;;;;;84.75;67.00;;;;;7.75;62.95;102887.56;4981207;28;71108;-66
2023/02/14 03:11:33;;;;;;;;;86.75;66.25;;;;;7.41;62.71;102831.25;4985710;28;45541;-66
2023/02/14 03:14:39;;;;;;;;;81.25;61.75;;;;;7.66;63.12;102867.94;4997281;28;45681;-66
2023/02/14 03:17:47;;;;;;;;;;;;;;;;;;;;;
2023/02/14 03:20:38;;;;;;;;;82.00;63.75;;;;;7.54;62.73;102858.03;4996102;28;70942;-66
2023/02/14 03:24:13;;;;;;;;;;;;;;;;;;;;;
2023/02/14 03:27:21;;;;;;;;;;;;;;;;;;;;;
2023/02/14 03:33:40;;;;;;;;;76.50;62.25;;;;;7.68;63.25;102888.34;4998926;28;45241;-66
2023/02/14 03:36:25;;;;;;;;;;;;;;;;;;;;;
2023/02/14 03:39:39;;;;;;;;;;;;;;;;;;;;;
2023/02/14 03:45:57;;;;;;;;;76.75;61.00;;;;;7.49;63.20;102862.38;4988255;28;45358;-66
2023/02/14 03:51:56;;;;;;;;;;;;;;;;;;;;;
2023/02/14 03:54:56;;;;;;;;;87.25;66.50;;;;;7.59;63.23;102886.44;4997599;28;74457;-66
2023/02/14 04:01:15;;;;;;;;;;;;;;;;;;;;;
2023/02/14 04:04:19;;;;;;;;;;;;;;;;;;;;;
2023/02/14 04:07:35;;;;;;;;;88.00;70.75;;;;;7.38;64.01;102857.81;4984211;28;74330;-66
2023/02/14 04:10:22;;;;;;;;;88.50;70.00;;;;;7.28;63.97;102842.56;4988640;28;47072;-65
2023/02/14 04:26:30;;;;;;;;;;;;;;;;;;;;;
2023/02/14 04:29:17;;;;;;;;;;;;;;;;;;;;;
2023/02/14 04:32:16;;;;;;;;;;;;;;;;;;;;;
2023/02/14 04:35:32;;;;;;;;;;;;;;;;;;;;;
2023/02/14 04:44:58;;;;;;;;;;;;;;;;;;;;;
2023/02/14 04:47:58;;;;;;;;;;;;;;;;;;;;;
2023/02/14 04:54:37;;;;;;;;;;;;;;;;;;;;;
2023/02/14 05:01:23;;;;;;;;;;;;;;;;;;;;;
2023/02/14 05:14:16;;;;;;;;;;;;;;;;;;;;;
2023/02/14 05:17:38;;;;;;;;;;;;;;;;;;;;;
2023/02/14 05:24:55;;;;;;;;;;;;;;;;;;;;;
2023/02/14 05:38:02;;;;;;;;;68.75;53.75;;;;;6.89;64.27;102840.22;4975966;28;45469;-66
2023/02/14 05:44:30;;;;;;;;;;;;;;;;;;;;;
2023/02/14 06:00:42;;;;;;;;;;;;;;;;;;;;;
2023/02/14 06:03:58;;;;;;;;;;;;;;;;;;;;;
2023/02/14 06:11:01;;;;;;;;;;;;;;;;;;;;;
2023/02/14 06:21:04;;;;;;;;;;;;;;;;;;;;;
2023/02/14 07:07:04;;;;;;;;;87.50;65.75;;;;;6.93;64.68;102897.78;5364376;22;45343;-66
2023/02/14 07:09:32;;;;;;;;;91.00;67.75;;;;;6.75;64.26;102869.16;4999651;28;45479;-65
2023/02/14 07:12:00;;;;;;;;;89.25;69.50;;;;;6.60;64.36;102846.81;4991184;28;45478;-67
2023/02/14 07:14:28;;;;;;;;;88.00;68.00;;;;;6.89;64.66;102894.19;4993049;28;45265;-67
2023/02/14 07:16:53;;;;;;;;;90.75;70.00;;;;;6.61;64.96;102861.84;5012604;28;46329;-68
2023/02/14 07:19:19;;;;;;;;;87.75;69.75;;;;;6.93;65.12;102903.97;4992429;28;45460;-67
2023/02/14 07:21:44;;;;;;;;;90.50;68.75;;;;;6.70;64.65;102868.19;4995603;28;45455;-67
2023/02/14 07:24:09;;;;;;;;;87.75;70.25;;;;;6.67;64.84;102863.72;4999048;28;45394;-67
2023/02/14 07:26:35;;;;;;;;;89.25;69.25;;;;;6.86;65.30;102892.38;4991818;28;47270;-67
2023/02/14 07:29:00;;;;;;;;;86.50;67.25;;;;;6.86;64.79;102895.03;4990215;28;46408;-67
2023/02/14 07:31:29;;;;;;;;;91.25;73.75;;;;;6.94;64.38;102905.78;4998172;28;45547;-67
2023/02/14 07:33:59;;;;;;;;;92.75;74.00;;;;;6.73;64.88;102870.91;4997441;28;45513;-67
2023/02/14 07:36:25;;;;;;;;;90.75;74.50;;;;;6.73;64.86;102881.50;4985187;28;46344;-67
2023/02/14 07:38:50;;;;;;;;;94.00;76.00;;;;;6.89;64.98;102904.81;4994664;28;45655;-67
2023/02/14 07:41:16;;;;;;;;;94.25;73.75;;;;;6.64;64.92;102871.63;5011038;28;45552;-67
2023/02/14 07:43:41;;;;;;;;;88.00;71.00;;;;;6.62;65.28;102863.63;4996090;28;45632;-67
2023/02/14 07:46:07;;;;;;;;;90.75;72.50;;;;;6.71;64.54;102883.25;4997159;28;47232;-67
2023/02/14 07:48:33;;;;;;;;;90.50;68.00;;;;;6.76;64.35;102889.53;4996881;28;45292;-67
2023/02/14 07:50:59;;;;;;;;;93.25;76.25;;;;;6.74;64.56;102897.47;4996460;28;45419;-67
2023/02/14 07:53:24;;;;;;;;;79.25;60.25;;;;;6.84;65.20;102906.50;4993875;28;45551;-67
2023/02/14 07:55:53;;;;;;;;;91.25;74.50;;;;;6.80;64.94;102894.94;4997026;28;46805;-67
2023/02/14 07:58:18;;;;;;;;;93.00;72.50;;;;;6.65;65.19;102876.09;4990586;28;45568;-67
2023/02/14 08:00:45;;;;;;;;;97.50;79.75;;;;;6.62;65.03;102862.75;4992126;28;45815;-67
2023/02/14 08:03:11;;;;;;;;;84.75;65.50;;;;;6.58;65.07;102861.81;4993581;28;45830;-67
2023/02/14 08:05:36;;;;;;;;;85.75;70.50;;;;;6.54;64.95;102845.81;4994239;28;45952;-68
2023/02/14 08:08:02;;;;;;;;;91.25;70.50;;;;;6.68;65.21;102871.72;4995736;28;45650;-67
2023/02/14 08:10:27;;;;;;;;;91.50;70.50;;;;;6.44;65.26;102832.34;4994259;28;45493;-67
2023/02/14 08:12:58;;;;;;;;;89.50;72.00;;;;;6.78;65.52;102895.75;4994356;28;45673;-67
2023/02/14 08:18:17;;;;;;;;;94.75;76.25;;;;;6.75;65.96;102888.66;4995471;28;45405;-67
2023/02/14 08:20:43;;;;;;;;;86.00;66.25;;;;;6.70;66.09;102877.06;4987692;28;45728;-67
2023/02/14 08:23:09;;;;;;;;;86.50;67.00;;;;;6.80;66.05;102894.94;4995493;28;45797;-67
2023/02/14 08:25:35;;;;;;;;;85.25;66.25;;;;;6.65;65.88;102869.00;4996894;28;45521;-67
2023/02/14 08:28:01;;;;;;;;;80.25;64.50;;;;;6.49;66.20;102838.63;5000264;28;45528;-67
2023/02/14 08:30:27;;;;;;;;;83.75;64.50;;;;;6.52;65.70;102843.13;4998617;28;45484;-67
2023/02/14 08:32:52;;;;;;;;;85.75;66.25;;;;;6.62;66.28;102852.13;4999306;28;45364;-67
2023/02/14 08:35:18;;;;;;;;;91.00;67.25;;;;;6.68;65.63;102871.72;4995127;28;46057;-67
2023/02/14 08:37:43;;;;;;;;;86.25;66.75;;;;;6.53;66.14;102836.91;4996802;28;45561;-67
2023/02/14 08:40:09;;;;;;;;;88.00;65.75;;;;;6.62;66.17;102855.69;4984904;28;45622;-67
2023/02/14 08:42:34;;;;;;;;;84.25;65.75;;;;;6.95;65.93;102904.94;4996038;28;46049;-67
2023/02/14 08:45:00;;;;;;;;;84.00;65.25;;;;;6.73;66.51;102874.44;4995421;28;47505;-67
2023/02/14 08:47:25;;;;;;;;;82.75;66.50;;;;;6.79;66.43;102878.97;4995076;28;45542;-67
2023/02/14 08:49:51;;;;;;;;;87.00;66.75;;;;;6.63;65.76;102859.22;4998965;28;45451;-67
2023/02/14 08:52:16;;;;;;;;;87.25;66.50;;;;;6.93;66.29;102901.31;4996870;28;45455;-67
2023/02/14 08:54:42;;;;;;;;;81.00;62.50;;;;;7.02;66.50;102917.44;4998849;28;45479;-67
2023/02/14 08:57:07;;;;;;;;;72.00;58.50;;;;;6.98;66.37;102909.38;4998377;28;45529;-67
2023/02/14 08:59:33;;;;;;;;;86.50;66.00;;;;;6.82;66.29;102879.91;4994420;28;45572;-67
2023/02/14 09:01:58;;;;;;;;;77.75;61.75;;;;;6.99;66.10;102908.53;4994188;28;45678;-67
2023/02/14 09:04:24;;;;;;;;;85.75;64.75;;;;;6.93;66.43;102903.97;4994124;28;46437;-67
2023/02/14 09:06:49;;;;;;;;;82.75;64.50;;;;;6.91;66.62;102902.19;4995250;28;45721;-67
2023/02/14 09:09:16;;;;;;;;;84.50;63.50;;;;;7.00;66.57;102910.28;4997691;28;45997;-67
2023/02/14 09:11:42;;;;;;;;;80.00;63.25;;;;;6.79;66.30;102877.22;4996627;28;45682;-67
2023/02/14 09:14:08;;;;;;;;;80.75;64.75;;;;;6.84;66.57;102870.22;4996936;28;45815;-67
2023/02/14 09:16:34;;;;;;;;;86.75;69.25;;;;;6.97;66.92;102881.94;4998417;28;45599;-67
2023/02/14 09:18:59;;;;;;;;;88.00;67.75;;;;;6.97;66.82;102876.63;4996685;28;45421;-67
2023/02/14 09:21:26;;;;;;;;;83.50;64.75;;;;;7.04;67.14;102893.56;4999051;28;45345;-67
2023/02/14 09:23:52;;;;;;;;;58.75;42.75;;;;;6.97;67.11;102878.41;4999460;28;46165;-67
2023/02/14 09:26:18;;;;;;;;;85.00;68.75;;;;;6.86;66.69;102849.00;4998292;28;45501;-67
2023/02/14 09:28:44;;;;;;;;;89.50;67.75;;;;;6.88;66.98;102855.22;4997163;28;45550;-67
2023/02/14 09:31:14;;;;;;;;;88.25;67.00;;;;;7.08;66.91;102884.75;4996917;28;45499;-67
2023/02/14 09:33:40;;;;;;;;;86.50;66.25;;;;;7.02;67.32;102874.94;4992235;28;47432;-67
2023/02/14 09:36:12;;;;;;;;;91.50;71.50;;;;;6.96;67.27;102852.72;4997433;28;45917;-67
2023/02/14 09:38:38;;;;;;;;;87.75;70.75;;;;;7.10;67.12;102875.09;4998643;28;45445;-67
2023/02/14 09:41:08;;;;;;;;;82.50;64.25;;;;;7.24;67.26;102885.91;4995267;28;45659;-67
2023/02/14 09:43:42;;;;;;;;;87.00;66.50;;;;;7.27;67.70;102885.06;4995023;28;45464;-67
2023/02/14 09:46:14;;;;;;;;;80.75;64.25;;;;;6.85;67.61;102810.06;4996787;28;45438;-67
2023/02/14 09:48:44;;;;;;;;;78.00;58.50;;;;;7.32;67.44;102897.56;4993277;28;46644;-67
2023/02/14 09:51:18;;;;;;;;;80.00;63.50;;;;;7.15;67.47;102865.44;4996796;28;45464;-67
2023/02/14 09:53:48;;;;;;;;;84.00;62.75;;;;;7.39;67.23;102896.78;4998243;28;46393;-67
2023/02/14 09:56:49;;;;;;;;;72.25;58.00;;;;;7.43;67.23;102884.44;4996901;28;45511;-67
2023/02/14 10:00:00;;;;;;;;;77.75;62.50;;;;;7.27;67.46;102854.09;4997081;28;45557;-67
2023/02/14 10:02:49;;;;;;;;;83.50;64.75;;;;;7.46;67.70;102873.84;4992513;28;45756;-67
2023/02/14 10:05:29;;;;;;;;;80.50;60.25;;;;;7.56;67.28;102874.88;4992543;28;47755;-67
2023/02/14 10:08:25;;;;;;;;;82.75;64.75;;;;;7.68;67.26;102876.81;4993855;28;45345;-66
2023/02/14 10:11:07;;;;;;;;;73.00;58.00;;;;;7.61;67.52;102858.13;4995578;28;45337;-67
2023/02/14 10:13:51;;;;;;;;;79.00;63.00;;;;;7.54;67.72;102842.06;4994411;28;45525;-67
2023/02/14 10:16:36;;;;;;;;;76.00;61.50;;;;;7.84;67.46;102883.25;4990078;28;45511;-67
2023/02/14 10:19:06;;;;;;;;;76.25;59.50;;;;;7.69;67.47;102852.03;4992879;28;45500;-67
2023/02/14 10:21:43;;;;;;;;;79.50;61.25;;;;;7.86;67.44;102863.75;4995734;28;45432;-67
2023/02/14 10:24:17;;;;;;;;;85.00;66.25;;;;;8.00;67.41;102879.88;4996208;28;45500;-67
2023/02/14 10:26:47;;;;;;;;;81.00;63.50;;;;;7.85;67.27;102845.13;4999224;28;45563;-67
2023/02/14 10:29:15;;;;;;;;;84.00;64.50;;;;;8.07;67.27;102879.13;4997719;28;45912;-67
2023/02/14 10:31:56;;;;;;;;;79.75;63.25;;;;;7.90;67.08;102841.69;4997181;28;45439;-67
2023/02/14 10:34:46;;;;;;;;;76.75;60.50;;;;;8.19;66.86;102880.13;4986668;28;45550;-67
2023/02/14 10:37:30;;;;;;;;;82.75;63.25;;;;;8.25;67.13;102877.53;4992030;28;45372;-67
2023/02/14 10:40:11;;;;;;;;;77.00;61.00;;;;;8.30;66.79;102874.06;4995134;28;45818;-67
2023/02/14 10:42:42;;;;;;;;;79.00;61.50;;;;;8.34;67.12;102869.66;4992518;28;45688;-67
2023/02/14 10:45:40;;;;;;;;;79.00;60.25;;;;;8.38;66.79;102866.16;4993975;28;45710;-67
2023/02/14 10:48:18;;;;;;;;;75.50;58.75;;;;;8.43;66.80;102858.25;4986820;28;46322;-67
2023/02/14 10:51:39;;;;;;;;;77.00;59.00;;;;;8.15;66.88;102802.94;4996173;28;46062;-67
2023/02/14 10:54:21;;;;;;;;;76.00;59.25;;;;;8.59;66.78;102854.88;4935306;28;45510;-67
2023/02/14 10:56:58;;;;;;;;;79.50;58.75;;;;;8.60;66.22;102843.31;4930318;28;45721;-67
2023/02/14 10:59:29;;;;;;;;;74.00;58.50;;;;;8.70;66.05;102854.97;4919526;28;47214;-67
2023/02/14 11:01:57;;;;;;;;;76.50;58.50;;;;;8.58;66.63;102817.59;4960259;28;46134;-67
2023/02/14 11:04:24;;;;;;;;;73.00;57.00;;;;;8.58;65.83;102807.81;4997877;28;45471;-67
2023/02/14 11:06:50;;;;;;;;;75.00;59.75;;;;;8.71;66.03;102814.16;4994298;28;45535;-67
2023/02/14 11:09:19;;;;;;;;;75.50;57.00;;;;;8.83;65.45;102824.91;4992557;28;46485;-67
2023/02/14 11:11:53;;;;;;;;;78.25;57.00;;;;;9.00;65.41;102838.34;4996254;28;45898;-67
2023/02/14 11:14:35;;;;;;;;;72.50;57.00;;;;;8.97;65.40;102819.69;4988660;28;45362;-67
2023/02/14 11:17:27;;;;;;;;;74.75;56.50;;;;;9.12;65.69;102823.34;4996228;28;45595;-72
2023/02/14 11:20:01;;;;;;;;;77.25;60.00;;;;;9.18;65.45;102828.72;4989130;28;46257;-67
2023/02/14 11:22:32;;;;;;;;;75.25;58.25;;;;;9.11;65.08;102803.81;4996773;28;45908;-67
2023/02/14 11:25:06;;;;;;;;;74.00;58.50;;;;;9.07;64.92;102783.34;4994557;28;45498;-67
2023/02/14 11:27:32;;;;;;;;;75.50;58.75;;;;;9.25;64.96;102804.78;4997060;28;45618;-67
2023/02/14 11:30:00;;;;;;;;;72.50;54.50;;;;;9.35;65.14;102803.03;4996127;28;47156;-67
2023/02/14 11:32:30;;;;;;;;;70.75;57.00;;;;;9.06;64.98;102749.59;4996652;28;45881;-67
2023/02/14 11:35:15;;;;;;;;;75.50;57.75;;;;;9.41;64.63;102787.09;4997302;28;45376;-67
2023/02/14 11:37:52;;;;;;;;;70.00;55.00;;;;;9.51;64.51;102789.81;4996086;28;45651;-67
2023/02/14 11:40:39;;;;;;;;;74.00;57.50;;;;;9.50;64.36;102766.69;4996878;28;47364;-67
2023/02/14 11:43:11;;;;;;;;;72.00;56.75;;;;;9.68;64.45;102795.22;4997945;28;45392;-67
2023/02/14 11:45:40;;;;;;;;;73.75;57.75;;;;;9.54;64.62;102755.16;4998174;28;45495;-67
2023/02/14 11:48:15;;;;;;;;;69.00;55.75;;;;;9.69;64.18;102770.31;4999521;28;45549;-67
2023/02/14 11:50:43;;;;;;;;;75.00;56.25;;;;;9.74;63.46;102760.56;5000140;28;47020;-67
2023/02/14 11:53:11;;;;;;;;;66.75;52.00;;;;;9.87;64.13;102775.72;5001220;28;45409;-67
2023/02/14 11:55:37;;;;;;;;;76.25;59.25;;;;;9.66;63.47;102733.00;4998797;28;45474;-68
2023/02/14 11:58:06;;;;;;;;;72.00;55.25;;;;;9.90;63.06;102761.50;4990443;28;45506;-69
2023/02/14 12:00:32;;;;;;;;;73.00;55.75;;;;;9.93;63.16;102756.19;5001172;28;46556;-69
2023/02/14 12:03:04;;;;;;;;;70.00;54.75;;;;;9.87;62.97;102735.72;5001601;28;46090;-69
2023/02/14 12:05:33;;;;;;;;;68.25;54.75;;;;;9.89;63.50;102717.03;5001707;28;45317;-69
2023/02/14 12:08:02;;;;;;;;;71.75;56.25;;;;;10.13;63.17;102746.44;5001752;28;45576;-68
2023/02/14 12:10:31;;;;;;;;;74.75;59.75;;;;;10.24;62.71;102757.16;5001631;28;45470;-68
2023/02/14 12:13:08;;;;;;;;;71.25;54.00;;;;;10.29;63.05;102749.13;4994924;28;45511;-67
2023/02/14 12:15:35;;;;;;;;;74.50;58.75;;;;;10.36;63.03;102746.50;5001071;28;45323;-67
2023/02/14 12:18:19;;;;;;;;;72.00;56.50;;;;;10.43;63.14;102739.38;4998916;28;45585;-67
2023/02/14 12:21:02;;;;;;;;;75.00;57.00;;;;;10.48;62.79;102734.94;4989711;28;46637;-67
2023/02/14 12:23:49;;;;;;;;;64.25;51.50;;;;;10.54;62.86;102726.00;4998020;28;45873;-67
2023/02/14 12:26:36;;;;;;;;;67.75;53.75;;;;;10.60;62.18;102726.03;4998061;28;45364;-67
2023/02/14 12:29:18;;;;;;;;;69.25;55.50;;;;;10.54;62.45;102710.91;4991474;28;45497;-67
2023/02/14 12:31:45;;;;;;;;;74.75;56.50;;;;;10.70;62.14;102724.25;5026735;28;47472;-67
2023/02/14 12:34:12;;;;;;;;;71.50;56.25;;;;;10.56;62.23;102682.41;4995172;28;45783;-67
2023/02/14 12:37:16;;;;;;;;;73.00;57.75;;;;;10.74;61.83;102702.88;4993720;28;45650;-68
2023/02/14 12:40:10;;;;;;;;;72.25;58.50;;;;;10.80;62.05;102690.38;4994670;28;45989;-68
2023/02/14 12:42:48;;;;;;;;;66.25;50.25;;;;;10.92;61.89;102706.38;4991971;28;47360;-67
2023/02/14 12:45:27;;;;;;;;;72.25;56.25;;;;;10.85;61.71;102677.91;4989052;28;45408;-67
2023/02/14 12:48:02;;;;;;;;;73.00;57.25;;;;;11.02;61.76;102694.78;4999692;28;45939;-67
2023/02/14 12:50:27;;;;;;;;;66.00;53.00;;;;;11.06;61.01;102690.28;5001177;28;45747;-67
2023/02/14 12:53:05;;;;;;;;;69.25;55.00;;;;;11.03;60.76;102664.50;5000700;28;46393;-67
2023/02/14 12:55:36;;;;;;;;;71.75;56.50;;;;;11.12;61.08;102668.91;4998801;28;45375;-67
2023/02/14 12:58:27;;;;;;;;;70.25;55.00;;;;;10.89;60.62;102613.78;4995591;28;45279;-67
2023/02/14 13:01:08;;;;;;;;;71.00;55.25;;;;;11.29;60.42;102664.41;4994865;28;45419;-67
2023/02/14 13:03:51;;;;;;;;;70.00;55.00;;;;;11.35;60.79;102666.13;5000957;28;45466;-67
2023/02/14 13:06:28;;;;;;;;;68.25;54.00;;;;;11.27;60.33;102649.25;4987391;28;45822;-67
2023/02/14 13:09:08;;;;;;;;;69.25;55.00;;;;;11.45;60.29;102658.97;5001024;28;45391;-67
2023/02/14 13:11:55;;;;;;;;;72.75;55.75;;;;;11.47;59.59;102650.00;4999530;28;45479;-67
2023/02/14 13:14:35;;;;;;;;;65.00;51.75;;;;;11.49;59.43;102640.22;4987919;28;47354;-67
2023/02/14 13:17:22;;;;;;;;;65.75;49.75;;;;;11.32;59.29;102604.66;4990828;28;45689;-67
2023/02/14 13:20:03;;;;;;;;;63.00;48.50;;;;;11.51;59.34;102618.81;4993765;28;46592;-67
2023/02/14 13:22:30;;;;;;;;;64.50;52.00;;;;;11.55;59.06;102623.25;4993621;28;45657;-67
2023/02/14 13:25:22;;;;;;;;;65.00;52.00;;;;;11.57;58.60;102624.09;4999453;28;45495;-67
2023/02/14 13:27:49;;;;;;;;;65.75;52.25;;;;;11.68;58.58;102626.72;5002845;28;45802;-67
2023/02/14 13:30:26;;;;;;;;;67.00;53.25;;;;;11.75;58.76;102631.13;4986651;28;45492;-67
2023/02/14 13:32:53;;;;;;;;;64.75;51.25;;;;;11.75;58.36;102609.72;4997005;28;45520;-67
2023/02/14 13:35:21;;;;;;;;;66.50;52.50;;;;;11.62;59.01;102583.97;4997747;28;47323;-67
2023/02/14 13:37:52;;;;;;;;;68.00;54.25;;;;;11.58;58.50;102561.69;5013083;28;45867;-67
2023/02/14 13:40:21;;;;;;;;;69.25;54.25;;;;;11.88;58.23;102602.50;4998026;28;45711;-67
2023/02/14 13:42:47;;;;;;;;;65.75;52.00;;;;;11.99;58.13;102605.09;4998846;28;45457;-67
2023/02/14 13:45:39;;;;;;;;;61.75;48.00;;;;;11.99;58.30;102589.91;4997696;28;46937;-67
2023/02/14 13:48:11;;;;;;;;;63.50;49.75;;;;;12.10;58.09;102605.91;4989623;28;45431;-68
2023/02/14 13:50:57;;;;;;;;;67.75;52.75;;;;;12.09;57.90;102595.22;4987693;28;45408;-67
2023/02/14 13:53:41;;;;;;;;;67.75;53.75;;;;;12.20;57.68;102601.34;4995675;28;45494;-67
2023/02/14 13:56:14;;;;;;;;;67.25;51.50;;;;;12.23;57.50;102594.19;4989194;28;47695;-67
2023/02/14 13:58:51;;;;;;;;;67.75;53.00;;;;;12.28;57.05;102590.56;4985907;28;45515;-67
2023/02/14 14:01:30;;;;;;;;;58.25;48.00;;;;;12.02;56.88;102547.06;4989901;28;45430;-67
2023/02/14 14:03:59;;;;;;;;;55.00;42.75;;;;;12.27;56.81;102570.06;4998470;28;45582;-67
2023/02/14 14:06:24;;;;;;;;;69.75;53.50;;;;;12.33;56.73;102573.56;4997658;28;46972;-67
2023/02/14 14:08:54;;;;;;;;;64.50;50.00;;;;;12.41;56.63;102577.03;4995065;28;45431;-67
2023/02/14 14:11:20;;;;;;;;;58.00;47.50;;;;;12.45;56.11;102579.69;4993963;28;45719;-67
2023/02/14 14:14:22;;;;;;;;;63.50;51.75;;;;;12.45;56.44;102577.03;4998495;28;45500;-67
2023/02/14 14:17:18;;;;;;;;;61.75;49.25;;;;;12.52;56.11;102571.56;4989557;28;46644;-67
2023/02/14 14:19:44;;;;;;;;;63.75;49.25;;;;;12.55;55.98;102571.53;4995679;28;45303;-67
2023/02/14 14:22:13;;;;;;;;;66.50;52.00;;;;;12.51;55.64;102550.13;4999606;28;45549;-67
2023/02/14 14:24:49;;;;;;;;;62.25;50.50;;;;;12.54;55.55;102551.00;4999766;28;45358;-67
2023/02/14 14:27:18;;;;;;;;;58.75;46.75;;;;;12.59;54.74;102553.63;4999338;28;45663;-67
2023/02/14 14:29:48;;;;;;;;;56.25;45.75;;;;;12.56;54.53;102549.19;4997061;28;45266;-67
2023/02/14 14:32:24;;;;;;;;;59.75;49.25;;;;;12.52;54.83;102525.13;4998616;28;45570;-67
2023/02/14 14:35:17;;;;;;;;;61.50;49.75;;;;;12.54;54.78;102516.16;4998386;28;46144;-67
2023/02/14 14:38:00;;;;;;;;;56.00;47.50;;;;;12.80;54.88;102547.13;4994780;28;46377;-67
2023/02/14 14:40:33;;;;;;;;;56.25;46.50;;;;;12.85;54.35;102552.44;5000026;28;45802;-67
2023/02/14 14:43:10;;;;;;;;;56.75;45.25;;;;;12.76;54.17;102531.97;4995216;28;45523;-67
2023/02/14 14:45:36;;;;;;;;;60.25;48.25;;;;;12.84;53.75;102540.81;4985356;28;45389;-67
2023/02/14 14:48:09;;;;;;;;;60.00;47.75;;;;;12.90;54.17;102539.84;4993733;28;47207;-67
2023/02/14 14:50:35;;;;;;;;;58.50;46.75;;;;;12.80;54.19;102512.28;5005562;28;45775;-67
2023/02/14 14:53:16;;;;;;;;;62.50;48.75;;;;;12.81;54.18;102507.81;4990820;28;45340;-66
2023/02/14 14:55:45;;;;;;;;;57.25;48.25;;;;;12.93;54.25;102527.28;5011158;28;45418;-68
2023/02/14 14:58:46;;;;;;;;;61.00;47.75;;;;;12.73;53.73;102473.97;4992455;28;47515;-68
2023/02/14 15:01:29;;;;;;;;;60.00;47.00;;;;;12.72;53.56;102472.19;4953834;28;45785;-68
2023/02/14 15:04:08;;;;;;;;;53.50;44.00;;;;;13.05;53.25;102520.88;4986316;28;45495;-68
2023/02/14 15:06:37;;;;;;;;;57.50;47.00;;;;;13.09;53.14;102519.91;4991290;28;45368;-68
2023/02/14 15:09:21;;;;;;;;;55.25;45.75;;;;;12.95;53.03;102481.69;4998751;28;45401;-68
2023/02/14 15:14:40;;;;;;;;;56.00;45.50;;;;;13.11;53.28;102515.44;4997733;28;45760;-68
2023/02/14 15:17:20;;;;;;;;;58.00;46.75;;;;;13.20;52.70;102519.75;4995944;28;45525;-68
2023/02/14 15:20:12;;;;;;;;;57.50;46.75;;;;;13.14;52.79;102504.63;4998147;28;45649;-68
2023/02/14 15:22:43;;;;;;;;;54.50;45.25;;;;;13.28;53.27;102515.16;4993417;28;45651;-68
2023/02/14 15:25:18;;;;;;;;;56.00;47.50;;;;;13.08;53.07;102480.63;4996798;28;45456;-68
2023/02/14 15:27:43;;;;;;;;;56.25;46.00;;;;;13.28;52.90;102515.16;4998443;28;45465;-68
2023/02/14 15:30:18;;;;;;;;;59.25;47.75;;;;;13.37;52.75;102513.28;4995916;28;47393;-69
2023/02/14 15:32:45;;;;;;;;;52.75;44.00;;;;;13.18;52.67;102477.78;4986233;28;45832;-68
2023/02/14 15:35:15;;;;;;;;;58.50;47.25;;;;;13.27;52.61;102494.59;4995533;28;45530;-69
2023/02/14 15:37:42;;;;;;;;;52.50;44.50;;;;;13.37;52.68;102500.75;4996908;28;45429;-68
2023/02/14 15:40:16;;;;;;;;;55.25;43.50;;;;;13.27;52.50;102478.53;4995222;28;48386;-68
2023/02/14 15:42:44;;;;;;;;;55.00;44.75;;;;;13.45;52.42;102498.84;4995044;28;45420;-68
2023/02/14 15:45:32;;;;;;;;;56.50;47.00;;;;;13.24;52.32;102454.44;4998338;28;45400;-67
2023/02/14 15:48:23;;;;;;;;;53.00;43.25;;;;;13.49;52.31;102496.97;4986037;28;45243;-68
2023/02/14 15:50:52;;;;;;;;;53.00;43.00;;;;;13.27;52.17;102454.38;4986704;28;48401;-67
2023/02/14 15:53:32;;;;;;;;;53.50;44.25;;;;;13.53;52.43;102488.88;4996342;28;45681;-67
2023/02/14 15:56:10;;;;;;;;;54.00;42.25;;;;;13.46;51.94;102464.84;4996587;28;45459;-67
2023/02/14 15:58:37;;;;;;;;;49.00;39.75;;;;;13.37;52.46;102448.91;4995938;28;47254;-67
2023/02/14 16:01:04;;;;;;;;;52.25;44.00;;;;;13.52;52.54;102472.78;4996234;28;46203;-68
2023/02/14 16:03:34;;;;;;;;;52.25;42.25;;;;;13.48;52.32;102460.31;4996153;28;45761;-67
2023/02/14 16:06:01;;;;;;;;;49.50;40.00;;;;;13.54;52.93;102468.28;4993011;28;45574;-67
2023/02/14 16:08:32;;;;;;;;;55.50;43.50;;;;;13.55;53.32;102472.75;4994831;28;45632;-67
2023/02/14 16:11:03;;;;;;;;;52.50;41.75;;;;;13.45;52.54;102461.28;4992386;28;46824;-67
2023/02/14 16:13:40;;;;;;;;;51.25;40.25;;;;;13.33;53.48;102440.00;4995360;28;45761;-67
2023/02/14 16:16:11;;;;;;;;;50.25;41.00;;;;;13.52;53.23;102472.78;4995619;28;45548;-68
2023/02/14 16:18:43;;;;;;;;;51.25;43.00;;;;;13.36;53.59;102445.31;4988262;28;45497;-68
2023/02/14 16:21:33;;;;;;;;;50.50;42.75;;;;;13.19;53.98;102421.44;4994575;28;46723;-68
2023/02/14 16:24:05;;;;;;;;;51.00;41.50;;;;;13.40;53.91;102464.94;4993496;28;45538;-67
2023/02/14 16:26:31;;;;;;;;;52.25;42.50;;;;;13.37;53.92;102456.97;4993443;28;45863;-67
2023/02/14 16:28:56;;;;;;;;;51.00;41.25;;;;;13.16;54.18;102429.53;4994013;28;46048;-67
2023/02/14 16:31:23;;;;;;;;;54.00;45.00;;;;;13.12;54.32;102434.06;4993202;28;46140;-67
2023/02/14 16:33:49;;;;;;;;;49.25;39.25;;;;;13.25;54.61;102464.25;5000015;28;45751;-68
2023/02/14 16:36:31;;;;;;;;;61.00;48.00;;;;;13.24;54.65;102461.59;4996301;28;45484;-67
2023/02/14 16:39:01;;;;;;;;;61.75;49.00;;;;;13.12;54.54;102458.19;4999484;28;45647;-67
2023/02/14 16:41:28;;;;;;;;;53.50;43.75;;;;;13.12;54.85;102460.00;4998295;28;46547;-67
2023/02/14 16:43:55;;;;;;;;;56.00;46.00;;;;;13.07;55.00;102456.50;5003693;28;45974;-67
2023/02/14 16:46:24;;;;;;;;;53.25;43.25;;;;;12.97;55.04;102439.66;4998068;28;45735;-67